sensor_id;sensor_type;location;lat;lon;timestamp;P1;durP1;ratioP1;P2;durP2;ratioP2
79493;SDS011;68951;53.130;18.104;2024-02-26T00:00:02;20.70;;;10.60;;
79493;SDS011;68951;53.130;18.104;2024-02-26T00:02:29;19.90;;;10.30;;
79493;SDS011;68951;53.130;18.104;2024-02-26T00:04:57;20.80;;;10.10;;
79493;SDS011;68951;53.130;18.104;2024-02-26T00:07:24;19.00;;;9.80;;
79493;SDS011;68951;53.130;18.104;2024-02-26T00:09:51;19.50;;;10.00;;
79493;SDS011;68951;53.130;18.104;2024-02-26T00:12:18;16.80;;;8.80;;
79493;SDS011;68951;53.130;18.104;2024-02-26T00:14:44;17.90;;;9.20;;
79493;SDS011;68951;53.130;18.104;2024-02-26T00:17:13;19.10;;;10.20;;
79493;SDS011;68951;53.130;18.104;2024-02-26T00:19:40;18.60;;;9.70;;
79493;SDS011;68951;53.130;18.104;2024-02-26T00:22:07;21.20;;;10.80;;
79493;SDS011;68951;53.130;18.104;2024-02-26T00:24:33;20.60;;;10.70;;
79493;SDS011;68951;53.130;18.104;2024-02-26T00:27:00;23.50;;;11.40;;
79493;SDS011;68951;53.130;18.104;2024-02-26T00:29:27;24.10;;;11.70;;
79493;SDS011;68951;53.130;18.104;2024-02-26T00:31:54;25.10;;;11.40;;
79493;SDS011;68951;53.130;18.104;2024-02-26T00:34:20;19.00;;;10.50;;
79493;SDS011;68951;53.130;18.104;2024-02-26T00:36:47;23.10;;;11.10;;
79493;SDS011;68951;53.130;18.104;2024-02-26T00:39:14;20.80;;;11.00;;
79493;SDS011;68951;53.130;18.104;2024-02-26T00:41:41;20.50;;;10.90;;
79493;SDS011;68951;53.130;18.104;2024-02-26T00:44:08;26.80;;;13.10;;
79493;SDS011;68951;53.130;18.104;2024-02-26T00:46:34;35.00;;;15.00;;
79493;SDS011;68951;53.130;18.104;2024-02-26T00:49:01;35.50;;;14.90;;
79493;SDS011;68951;53.130;18.104;2024-02-26T00:51:29;39.40;;;16.90;;
79493;SDS011;68951;53.130;18.104;2024-02-26T00:53:55;40.70;;;16.30;;
79493;SDS011;68951;53.130;18.104;2024-02-26T00:56:22;37.10;;;15.80;;
79493;SDS011;68951;53.130;18.104;2024-02-26T00:58:49;25.20;;;12.20;;
79493;SDS011;68951;53.130;18.104;2024-02-26T01:01:16;21.60;;;11.00;;
79493;SDS011;68951;53.130;18.104;2024-02-26T01:03:43;19.90;;;10.80;;
79493;SDS011;68951;53.130;18.104;2024-02-26T01:06:10;41.80;;;16.60;;
79493;SDS011;68951;53.130;18.104;2024-02-26T01:08:37;56.10;;;19.80;;
79493;SDS011;68951;53.130;18.104;2024-02-26T01:11:04;51.30;;;20.00;;
79493;SDS011;68951;53.130;18.104;2024-02-26T01:13:31;81.00;;;27.50;;
79493;SDS011;68951;53.130;18.104;2024-02-26T01:15:57;107.70;;;36.50;;
79493;SDS011;68951;53.130;18.104;2024-02-26T01:18:24;111.00;;;36.20;;
79493;SDS011;68951;53.130;18.104;2024-02-26T01:20:51;95.70;;;31.00;;
79493;SDS011;68951;53.130;18.104;2024-02-26T01:23:20;91.40;;;30.50;;
79493;SDS011;68951;53.130;18.104;2024-02-26T01:25:47;76.10;;;25.10;;
79493;SDS011;68951;53.130;18.104;2024-02-26T01:28:15;79.20;;;26.50;;
79493;SDS011;68951;53.130;18.104;2024-02-26T01:30:43;77.20;;;30.40;;
79493;SDS011;68951;53.130;18.104;2024-02-26T01:33:09;78.60;;;31.00;;
79493;SDS011;68951;53.130;18.104;2024-02-26T01:35:36;62.90;;;24.50;;
79493;SDS011;68951;53.130;18.104;2024-02-26T01:38:03;59.90;;;23.60;;
79493;SDS011;68951;53.130;18.104;2024-02-26T01:40:30;58.20;;;24.20;;
79493;SDS011;68951;53.130;18.104;2024-02-26T01:42:57;53.10;;;21.50;;
79493;SDS011;68951;53.130;18.104;2024-02-26T01:45:24;47.10;;;19.10;;
79493;SDS011;68951;53.130;18.104;2024-02-26T01:47:51;44.80;;;18.70;;
79493;SDS011;68951;53.130;18.104;2024-02-26T01:50:19;45.10;;;17.90;;
79493;SDS011;68951;53.130;18.104;2024-02-26T01:52:49;44.70;;;20.10;;
79493;SDS011;68951;53.130;18.104;2024-02-26T01:55:18;33.70;;;15.70;;
79493;SDS011;68951;53.130;18.104;2024-02-26T01:57:48;25.30;;;12.20;;
79493;SDS011;68951;53.130;18.104;2024-02-26T02:00:16;22.90;;;11.50;;
79493;SDS011;68951;53.130;18.104;2024-02-26T02:02:44;20.70;;;11.00;;
79493;SDS011;68951;53.130;18.104;2024-02-26T02:05:15;21.40;;;11.30;;
79493;SDS011;68951;53.130;18.104;2024-02-26T02:07:44;21.30;;;10.80;;
79493;SDS011;68951;53.130;18.104;2024-02-26T02:10:11;21.90;;;11.00;;
79493;SDS011;68951;53.130;18.104;2024-02-26T02:12:38;20.60;;;11.30;;
79493;SDS011;68951;53.130;18.104;2024-02-26T02:15:06;23.70;;;11.60;;
79493;SDS011;68951;53.130;18.104;2024-02-26T02:17:34;22.30;;;11.20;;
79493;SDS011;68951;53.130;18.104;2024-02-26T02:20:01;23.40;;;11.10;;
79493;SDS011;68951;53.130;18.104;2024-02-26T02:22:28;24.60;;;11.80;;
79493;SDS011;68951;53.130;18.104;2024-02-26T02:24:55;20.70;;;10.40;;
79493;SDS011;68951;53.130;18.104;2024-02-26T02:27:21;23.90;;;11.10;;
79493;SDS011;68951;53.130;18.104;2024-02-26T02:29:48;20.80;;;10.90;;
79493;SDS011;68951;53.130;18.104;2024-02-26T02:32:16;26.20;;;11.90;;
79493;SDS011;68951;53.130;18.104;2024-02-26T02:34:45;19.70;;;10.40;;
79493;SDS011;68951;53.130;18.104;2024-02-26T02:37:12;22.90;;;11.00;;
79493;SDS011;68951;53.130;18.104;2024-02-26T02:39:39;21.80;;;9.80;;
79493;SDS011;68951;53.130;18.104;2024-02-26T02:42:05;16.50;;;8.40;;
79493;SDS011;68951;53.130;18.104;2024-02-26T02:44:32;22.20;;;10.60;;
79493;SDS011;68951;53.130;18.104;2024-02-26T02:46:59;21.40;;;11.00;;
79493;SDS011;68951;53.130;18.104;2024-02-26T02:49:26;21.40;;;11.20;;
79493;SDS011;68951;53.130;18.104;2024-02-26T02:51:52;21.90;;;11.60;;
79493;SDS011;68951;53.130;18.104;2024-02-26T02:54:20;23.80;;;11.70;;
79493;SDS011;68951;53.130;18.104;2024-02-26T02:56:47;23.90;;;12.70;;
79493;SDS011;68951;53.130;18.104;2024-02-26T02:59:14;21.40;;;10.30;;
79493;SDS011;68951;53.130;18.104;2024-02-26T03:01:41;21.80;;;11.10;;
79493;SDS011;68951;53.130;18.104;2024-02-26T03:04:07;17.70;;;10.00;;
79493;SDS011;68951;53.130;18.104;2024-02-26T03:06:34;18.10;;;9.30;;
79493;SDS011;68951;53.130;18.104;2024-02-26T03:09:01;22.50;;;10.30;;
79493;SDS011;68951;53.130;18.104;2024-02-26T03:11:28;15.10;;;7.70;;
79493;SDS011;68951;53.130;18.104;2024-02-26T03:13:55;19.20;;;9.70;;
79493;SDS011;68951;53.130;18.104;2024-02-26T03:16:22;19.50;;;9.70;;
79493;SDS011;68951;53.130;18.104;2024-02-26T03:18:49;17.10;;;8.60;;
79493;SDS011;68951;53.130;18.104;2024-02-26T03:21:15;17.00;;;9.20;;
79493;SDS011;68951;53.130;18.104;2024-02-26T03:23:42;19.20;;;10.00;;
79493;SDS011;68951;53.130;18.104;2024-02-26T03:26:09;18.90;;;10.00;;
79493;SDS011;68951;53.130;18.104;2024-02-26T03:28:40;17.40;;;9.50;;
79493;SDS011;68951;53.130;18.104;2024-02-26T03:31:07;21.40;;;10.20;;
79493;SDS011;68951;53.130;18.104;2024-02-26T03:33:34;16.40;;;9.50;;
79493;SDS011;68951;53.130;18.104;2024-02-26T03:36:01;24.00;;;11.30;;
79493;SDS011;68951;53.130;18.104;2024-02-26T03:38:29;20.50;;;9.50;;
79493;SDS011;68951;53.130;18.104;2024-02-26T03:40:56;19.40;;;9.30;;
79493;SDS011;68951;53.130;18.104;2024-02-26T03:43:23;15.10;;;7.80;;
79493;SDS011;68951;53.130;18.104;2024-02-26T03:45:50;17.80;;;8.90;;
79493;SDS011;68951;53.130;18.104;2024-02-26T03:48:17;14.50;;;8.60;;
79493;SDS011;68951;53.130;18.104;2024-02-26T03:50:43;18.00;;;9.80;;
79493;SDS011;68951;53.130;18.104;2024-02-26T03:53:10;20.10;;;10.00;;
79493;SDS011;68951;53.130;18.104;2024-02-26T03:55:39;20.80;;;9.70;;
79493;SDS011;68951;53.130;18.104;2024-02-26T03:58:08;20.80;;;10.50;;
79493;SDS011;68951;53.130;18.104;2024-02-26T04:00:35;19.90;;;10.70;;
79493;SDS011;68951;53.130;18.104;2024-02-26T04:03:03;22.90;;;10.90;;
79493;SDS011;68951;53.130;18.104;2024-02-26T04:05:30;19.80;;;10.30;;
79493;SDS011;68951;53.130;18.104;2024-02-26T04:07:57;19.70;;;10.40;;
79493;SDS011;68951;53.130;18.104;2024-02-26T04:10:23;18.70;;;10.00;;
79493;SDS011;68951;53.130;18.104;2024-02-26T04:12:51;18.10;;;10.10;;
79493;SDS011;68951;53.130;18.104;2024-02-26T04:15:17;17.70;;;9.30;;
79493;SDS011;68951;53.130;18.104;2024-02-26T04:17:44;19.80;;;10.70;;
79493;SDS011;68951;53.130;18.104;2024-02-26T04:20:15;17.30;;;8.60;;
79493;SDS011;68951;53.130;18.104;2024-02-26T04:22:43;20.00;;;10.50;;
79493;SDS011;68951;53.130;18.104;2024-02-26T04:25:11;23.40;;;11.00;;
79493;SDS011;68951;53.130;18.104;2024-02-26T04:27:38;20.40;;;10.40;;
79493;SDS011;68951;53.130;18.104;2024-02-26T04:30:06;21.90;;;10.00;;
79493;SDS011;68951;53.130;18.104;2024-02-26T04:32:34;21.40;;;10.40;;
79493;SDS011;68951;53.130;18.104;2024-02-26T04:35:02;20.30;;;10.80;;
79493;SDS011;68951;53.130;18.104;2024-02-26T04:37:29;22.90;;;10.80;;
79493;SDS011;68951;53.130;18.104;2024-02-26T04:39:58;21.40;;;10.50;;
79493;SDS011;68951;53.130;18.104;2024-02-26T04:42:26;20.70;;;10.60;;
79493;SDS011;68951;53.130;18.104;2024-02-26T04:44:54;23.10;;;10.20;;
79493;SDS011;68951;53.130;18.104;2024-02-26T04:47:21;20.40;;;10.60;;
79493;SDS011;68951;53.130;18.104;2024-02-26T04:49:51;17.20;;;8.90;;
79493;SDS011;68951;53.130;18.104;2024-02-26T04:52:18;18.60;;;10.10;;
79493;SDS011;68951;53.130;18.104;2024-02-26T04:54:45;20.20;;;10.10;;
79493;SDS011;68951;53.130;18.104;2024-02-26T04:57:12;18.70;;;9.70;;
79493;SDS011;68951;53.130;18.104;2024-02-26T04:59:39;21.90;;;11.10;;
79493;SDS011;68951;53.130;18.104;2024-02-26T05:02:07;18.60;;;9.50;;
79493;SDS011;68951;53.130;18.104;2024-02-26T05:04:36;28.60;;;12.10;;
79493;SDS011;68951;53.130;18.104;2024-02-26T05:07:02;25.10;;;12.00;;
79493;SDS011;68951;53.130;18.104;2024-02-26T05:09:30;24.10;;;11.00;;
79493;SDS011;68951;53.130;18.104;2024-02-26T05:11:56;26.80;;;12.30;;
79493;SDS011;68951;53.130;18.104;2024-02-26T05:14:23;22.00;;;10.70;;
79493;SDS011;68951;53.130;18.104;2024-02-26T05:16:50;22.10;;;10.90;;
79493;SDS011;68951;53.130;18.104;2024-02-26T05:19:17;17.80;;;10.50;;
79493;SDS011;68951;53.130;18.104;2024-02-26T05:21:43;18.50;;;10.10;;
79493;SDS011;68951;53.130;18.104;2024-02-26T05:24:10;17.10;;;9.60;;
79493;SDS011;68951;53.130;18.104;2024-02-26T05:26:37;20.90;;;9.80;;
79493;SDS011;68951;53.130;18.104;2024-02-26T05:29:04;18.90;;;9.20;;
79493;SDS011;68951;53.130;18.104;2024-02-26T05:31:31;17.90;;;9.30;;
79493;SDS011;68951;53.130;18.104;2024-02-26T05:33:58;16.50;;;8.60;;
79493;SDS011;68951;53.130;18.104;2024-02-26T05:36:25;17.20;;;9.80;;
79493;SDS011;68951;53.130;18.104;2024-02-26T05:38:52;17.20;;;9.00;;
79493;SDS011;68951;53.130;18.104;2024-02-26T05:41:19;16.80;;;8.40;;
79493;SDS011;68951;53.130;18.104;2024-02-26T05:43:52;17.30;;;9.60;;
79493;SDS011;68951;53.130;18.104;2024-02-26T05:46:20;18.50;;;10.60;;
79493;SDS011;68951;53.130;18.104;2024-02-26T05:48:50;19.30;;;9.90;;
79493;SDS011;68951;53.130;18.104;2024-02-26T05:51:18;20.40;;;10.00;;
79493;SDS011;68951;53.130;18.104;2024-02-26T05:53:45;18.50;;;9.90;;
79493;SDS011;68951;53.130;18.104;2024-02-26T05:56:13;19.90;;;9.60;;
79493;SDS011;68951;53.130;18.104;2024-02-26T05:58:40;23.90;;;10.70;;
79493;SDS011;68951;53.130;18.104;2024-02-26T06:01:07;23.30;;;10.80;;
79493;SDS011;68951;53.130;18.104;2024-02-26T06:03:33;20.80;;;10.60;;
79493;SDS011;68951;53.130;18.104;2024-02-26T06:06:00;21.10;;;11.30;;
79493;SDS011;68951;53.130;18.104;2024-02-26T06:08:28;21.50;;;11.10;;
79493;SDS011;68951;53.130;18.104;2024-02-26T06:10:55;20.70;;;9.80;;
79493;SDS011;68951;53.130;18.104;2024-02-26T06:13:22;23.70;;;11.30;;
79493;SDS011;68951;53.130;18.104;2024-02-26T06:15:49;21.80;;;10.50;;
79493;SDS011;68951;53.130;18.104;2024-02-26T06:18:15;24.10;;;10.60;;
79493;SDS011;68951;53.130;18.104;2024-02-26T06:20:42;21.20;;;10.60;;
79493;SDS011;68951;53.130;18.104;2024-02-26T06:23:09;23.60;;;12.40;;
79493;SDS011;68951;53.130;18.104;2024-02-26T06:25:36;25.10;;;13.00;;
79493;SDS011;68951;53.130;18.104;2024-02-26T06:28:03;25.00;;;14.00;;
79493;SDS011;68951;53.130;18.104;2024-02-26T06:30:31;25.70;;;14.50;;
79493;SDS011;68951;53.130;18.104;2024-02-26T06:32:58;28.20;;;15.10;;
79493;SDS011;68951;53.130;18.104;2024-02-26T06:35:24;27.50;;;15.00;;
79493;SDS011;68951;53.130;18.104;2024-02-26T06:37:51;28.50;;;15.50;;
79493;SDS011;68951;53.130;18.104;2024-02-26T06:40:19;30.50;;;16.50;;
79493;SDS011;68951;53.130;18.104;2024-02-26T06:42:46;30.90;;;15.70;;
79493;SDS011;68951;53.130;18.104;2024-02-26T06:45:13;26.40;;;12.90;;
79493;SDS011;68951;53.130;18.104;2024-02-26T06:47:40;22.90;;;12.40;;
79493;SDS011;68951;53.130;18.104;2024-02-26T06:50:07;28.90;;;16.20;;
79493;SDS011;68951;53.130;18.104;2024-02-26T06:52:35;26.00;;;14.50;;
79493;SDS011;68951;53.130;18.104;2024-02-26T06:55:02;33.20;;;16.20;;
79493;SDS011;68951;53.130;18.104;2024-02-26T06:57:29;29.70;;;15.60;;
79493;SDS011;68951;53.130;18.104;2024-02-26T06:59:56;31.40;;;16.90;;
79493;SDS011;68951;53.130;18.104;2024-02-26T07:02:25;31.40;;;17.10;;
79493;SDS011;68951;53.130;18.104;2024-02-26T07:04:51;31.10;;;17.10;;
79493;SDS011;68951;53.130;18.104;2024-02-26T07:07:18;31.70;;;17.30;;
79493;SDS011;68951;53.130;18.104;2024-02-26T07:09:45;32.30;;;16.30;;
79493;SDS011;68951;53.130;18.104;2024-02-26T07:12:12;36.00;;;18.40;;
79493;SDS011;68951;53.130;18.104;2024-02-26T07:14:38;34.80;;;18.90;;
79493;SDS011;68951;53.130;18.104;2024-02-26T07:17:05;35.10;;;18.40;;
79493;SDS011;68951;53.130;18.104;2024-02-26T07:19:32;28.30;;;15.60;;
79493;SDS011;68951;53.130;18.104;2024-02-26T07:21:59;28.30;;;14.60;;
79493;SDS011;68951;53.130;18.104;2024-02-26T07:24:31;26.50;;;15.60;;
79493;SDS011;68951;53.130;18.104;2024-02-26T07:26:58;27.00;;;13.40;;
79493;SDS011;68951;53.130;18.104;2024-02-26T07:29:24;23.40;;;13.50;;
79493;SDS011;68951;53.130;18.104;2024-02-26T07:31:51;22.40;;;12.60;;
79493;SDS011;68951;53.130;18.104;2024-02-26T07:34:18;27.30;;;13.30;;
79493;SDS011;68951;53.130;18.104;2024-02-26T07:36:45;22.00;;;12.80;;
79493;SDS011;68951;53.130;18.104;2024-02-26T07:39:12;25.60;;;14.60;;
79493;SDS011;68951;53.130;18.104;2024-02-26T07:41:38;22.30;;;12.90;;
79493;SDS011;68951;53.130;18.104;2024-02-26T07:44:05;21.90;;;12.90;;
79493;SDS011;68951;53.130;18.104;2024-02-26T07:46:32;28.00;;;13.80;;
79493;SDS011;68951;53.130;18.104;2024-02-26T07:48:59;27.00;;;14.60;;
79493;SDS011;68951;53.130;18.104;2024-02-26T07:51:25;24.50;;;14.40;;
79493;SDS011;68951;53.130;18.104;2024-02-26T07:53:52;26.70;;;16.20;;
79493;SDS011;68951;53.130;18.104;2024-02-26T07:56:19;24.70;;;15.40;;
79493;SDS011;68951;53.130;18.104;2024-02-26T07:58:46;31.60;;;17.90;;
79493;SDS011;68951;53.130;18.104;2024-02-26T08:01:13;26.20;;;13.80;;
79493;SDS011;68951;53.130;18.104;2024-02-26T08:03:41;28.60;;;15.40;;
79493;SDS011;68951;53.130;18.104;2024-02-26T08:06:08;25.20;;;13.60;;
79493;SDS011;68951;53.130;18.104;2024-02-26T08:08:35;27.10;;;14.00;;
79493;SDS011;68951;53.130;18.104;2024-02-26T08:11:02;28.90;;;14.30;;
79493;SDS011;68951;53.130;18.104;2024-02-26T08:13:29;23.90;;;13.40;;
79493;SDS011;68951;53.130;18.104;2024-02-26T08:15:56;25.80;;;13.70;;
79493;SDS011;68951;53.130;18.104;2024-02-26T08:18:22;26.30;;;13.80;;
79493;SDS011;68951;53.130;18.104;2024-02-26T08:20:49;31.70;;;16.30;;
79493;SDS011;68951;53.130;18.104;2024-02-26T08:23:17;30.10;;;16.40;;
79493;SDS011;68951;53.130;18.104;2024-02-26T08:25:44;30.70;;;15.30;;
79493;SDS011;68951;53.130;18.104;2024-02-26T08:28:11;26.00;;;13.60;;
79493;SDS011;68951;53.130;18.104;2024-02-26T08:30:39;31.40;;;17.60;;
79493;SDS011;68951;53.130;18.104;2024-02-26T08:33:06;32.10;;;17.30;;
79493;SDS011;68951;53.130;18.104;2024-02-26T08:35:33;23.80;;;11.90;;
79493;SDS011;68951;53.130;18.104;2024-02-26T08:38:00;26.00;;;14.50;;
79493;SDS011;68951;53.130;18.104;2024-02-26T08:40:27;25.40;;;14.80;;
79493;SDS011;68951;53.130;18.104;2024-02-26T08:42:53;27.50;;;15.00;;
79493;SDS011;68951;53.130;18.104;2024-02-26T08:45:21;25.70;;;15.00;;
79493;SDS011;68951;53.130;18.104;2024-02-26T08:47:48;24.70;;;14.90;;
79493;SDS011;68951;53.130;18.104;2024-02-26T08:50:15;26.50;;;14.60;;
79493;SDS011;68951;53.130;18.104;2024-02-26T08:52:42;26.00;;;14.30;;
79493;SDS011;68951;53.130;18.104;2024-02-26T08:55:09;27.90;;;16.30;;
79493;SDS011;68951;53.130;18.104;2024-02-26T08:57:35;27.70;;;16.20;;
79493;SDS011;68951;53.130;18.104;2024-02-26T09:00:03;36.60;;;19.90;;
79493;SDS011;68951;53.130;18.104;2024-02-26T09:02:30;30.70;;;19.30;;
79493;SDS011;68951;53.130;18.104;2024-02-26T09:04:56;28.40;;;14.90;;
79493;SDS011;68951;53.130;18.104;2024-02-26T09:07:23;41.90;;;24.50;;
79493;SDS011;68951;53.130;18.104;2024-02-26T09:09:50;36.40;;;20.80;;
79493;SDS011;68951;53.130;18.104;2024-02-26T09:12:17;39.50;;;20.40;;
79493;SDS011;68951;53.130;18.104;2024-02-26T09:14:44;27.90;;;16.70;;
79493;SDS011;68951;53.130;18.104;2024-02-26T09:17:10;31.30;;;19.00;;
79493;SDS011;68951;53.130;18.104;2024-02-26T09:19:37;32.90;;;17.20;;
79493;SDS011;68951;53.130;18.104;2024-02-26T09:22:04;29.10;;;17.90;;
79493;SDS011;68951;53.130;18.104;2024-02-26T09:24:32;32.10;;;17.60;;
79493;SDS011;68951;53.130;18.104;2024-02-26T09:26:59;37.20;;;20.20;;
79493;SDS011;68951;53.130;18.104;2024-02-26T09:29:25;33.40;;;18.80;;
79493;SDS011;68951;53.130;18.104;2024-02-26T09:31:53;36.70;;;20.60;;
79493;SDS011;68951;53.130;18.104;2024-02-26T09:34:20;33.80;;;19.10;;
79493;SDS011;68951;53.130;18.104;2024-02-26T09:36:46;34.00;;;20.50;;
79493;SDS011;68951;53.130;18.104;2024-02-26T09:39:13;39.00;;;23.50;;
79493;SDS011;68951;53.130;18.104;2024-02-26T09:41:41;28.90;;;16.50;;
79493;SDS011;68951;53.130;18.104;2024-02-26T09:44:08;23.00;;;12.50;;
79493;SDS011;68951;53.130;18.104;2024-02-26T09:46:36;31.60;;;18.40;;
79493;SDS011;68951;53.130;18.104;2024-02-26T09:49:04;32.30;;;18.30;;
79493;SDS011;68951;53.130;18.104;2024-02-26T09:51:31;32.50;;;20.30;;
79493;SDS011;68951;53.130;18.104;2024-02-26T09:53:59;32.30;;;19.10;;
79493;SDS011;68951;53.130;18.104;2024-02-26T09:56:29;27.50;;;16.20;;
79493;SDS011;68951;53.130;18.104;2024-02-26T09:58:59;26.90;;;15.80;;
79493;SDS011;68951;53.130;18.104;2024-02-26T10:01:26;32.50;;;18.50;;
79493;SDS011;68951;53.130;18.104;2024-02-26T10:03:57;35.70;;;19.60;;
79493;SDS011;68951;53.130;18.104;2024-02-26T10:06:26;36.90;;;19.80;;
79493;SDS011;68951;53.130;18.104;2024-02-26T10:08:56;30.50;;;18.60;;
79493;SDS011;68951;53.130;18.104;2024-02-26T10:11:27;29.20;;;18.20;;
79493;SDS011;68951;53.130;18.104;2024-02-26T10:13:54;27.80;;;17.20;;
79493;SDS011;68951;53.130;18.104;2024-02-26T10:16:21;33.20;;;18.00;;
79493;SDS011;68951;53.130;18.104;2024-02-26T10:18:49;29.70;;;17.60;;
79493;SDS011;68951;53.130;18.104;2024-02-26T10:21:21;33.20;;;20.10;;
79493;SDS011;68951;53.130;18.104;2024-02-26T10:23:49;31.40;;;20.10;;
79493;SDS011;68951;53.130;18.104;2024-02-26T10:26:19;36.20;;;22.10;;
79493;SDS011;68951;53.130;18.104;2024-02-26T10:28:46;29.60;;;18.70;;
79493;SDS011;68951;53.130;18.104;2024-02-26T10:31:14;34.10;;;20.80;;
79493;SDS011;68951;53.130;18.104;2024-02-26T10:33:42;31.80;;;19.80;;
79493;SDS011;68951;53.130;18.104;2024-02-26T10:36:10;32.20;;;19.40;;
79493;SDS011;68951;53.130;18.104;2024-02-26T10:38:38;28.20;;;18.40;;
79493;SDS011;68951;53.130;18.104;2024-02-26T10:41:06;29.50;;;18.70;;
79493;SDS011;68951;53.130;18.104;2024-02-26T10:43:34;32.50;;;20.20;;
79493;SDS011;68951;53.130;18.104;2024-02-26T10:46:01;30.50;;;20.10;;
79493;SDS011;68951;53.130;18.104;2024-02-26T10:48:28;32.70;;;20.50;;
79493;SDS011;68951;53.130;18.104;2024-02-26T10:50:55;27.90;;;18.20;;
79493;SDS011;68951;53.130;18.104;2024-02-26T10:53:26;29.50;;;18.80;;
79493;SDS011;68951;53.130;18.104;2024-02-26T10:56:01;31.20;;;20.10;;
79493;SDS011;68951;53.130;18.104;2024-02-26T10:58:31;30.40;;;20.60;;
79493;SDS011;68951;53.130;18.104;2024-02-26T11:00:59;34.30;;;22.40;;
79493;SDS011;68951;53.130;18.104;2024-02-26T11:03:26;36.80;;;22.90;;
79493;SDS011;68951;53.130;18.104;2024-02-26T11:05:59;30.10;;;20.00;;
79493;SDS011;68951;53.130;18.104;2024-02-26T11:08:28;32.20;;;22.20;;
79493;SDS011;68951;53.130;18.104;2024-02-26T11:10:57;33.50;;;23.40;;
79493;SDS011;68951;53.130;18.104;2024-02-26T11:13:27;31.50;;;21.90;;
79493;SDS011;68951;53.130;18.104;2024-02-26T11:15:57;36.70;;;23.30;;
79493;SDS011;68951;53.130;18.104;2024-02-26T11:18:27;35.50;;;22.20;;
79493;SDS011;68951;53.130;18.104;2024-02-26T11:20:54;29.70;;;18.90;;
79493;SDS011;68951;53.130;18.104;2024-02-26T11:23:23;32.50;;;23.40;;
79493;SDS011;68951;53.130;18.104;2024-02-26T11:25:52;31.70;;;21.60;;
79493;SDS011;68951;53.130;18.104;2024-02-26T11:28:22;31.10;;;22.30;;
79493;SDS011;68951;53.130;18.104;2024-02-26T11:30:51;29.90;;;19.70;;
79493;SDS011;68951;53.130;18.104;2024-02-26T11:33:20;31.30;;;19.90;;
79493;SDS011;68951;53.130;18.104;2024-02-26T11:35:47;23.00;;;14.90;;
79493;SDS011;68951;53.130;18.104;2024-02-26T11:38:21;23.30;;;16.50;;
79493;SDS011;68951;53.130;18.104;2024-02-26T11:40:50;24.50;;;14.20;;
79493;SDS011;68951;53.130;18.104;2024-02-26T11:43:17;23.90;;;16.80;;
79493;SDS011;68951;53.130;18.104;2024-02-26T11:45:54;25.60;;;18.00;;
79493;SDS011;68951;53.130;18.104;2024-02-26T11:48:24;27.00;;;18.50;;
79493;SDS011;68951;53.130;18.104;2024-02-26T11:50:53;27.80;;;18.90;;
79493;SDS011;68951;53.130;18.104;2024-02-26T11:53:28;27.20;;;19.20;;
79493;SDS011;68951;53.130;18.104;2024-02-26T11:58:56;27.50;;;18.40;;
79493;SDS011;68951;53.130;18.104;2024-02-26T12:01:39;26.90;;;18.30;;
79493;SDS011;68951;53.130;18.104;2024-02-26T12:04:19;28.90;;;19.40;;
79493;SDS011;68951;53.130;18.104;2024-02-26T12:07:00;23.60;;;16.40;;
79493;SDS011;68951;53.130;18.104;2024-02-26T12:09:41;24.40;;;16.50;;
79493;SDS011;68951;53.130;18.104;2024-02-26T12:12:10;20.50;;;14.70;;
79493;SDS011;68951;53.130;18.104;2024-02-26T12:14:55;26.30;;;15.60;;
79493;SDS011;68951;53.130;18.104;2024-02-26T12:17:24;27.60;;;18.20;;
79493;SDS011;68951;53.130;18.104;2024-02-26T12:19:52;26.00;;;17.80;;
79493;SDS011;68951;53.130;18.104;2024-02-26T12:22:20;24.00;;;17.10;;
79493;SDS011;68951;53.130;18.104;2024-02-26T12:24:47;24.40;;;16.80;;
79493;SDS011;68951;53.130;18.104;2024-02-26T12:27:14;24.60;;;17.40;;
79493;SDS011;68951;53.130;18.104;2024-02-26T12:29:41;23.80;;;16.60;;
79493;SDS011;68951;53.130;18.104;2024-02-26T12:32:08;23.80;;;15.80;;
79493;SDS011;68951;53.130;18.104;2024-02-26T12:34:35;22.20;;;15.50;;
79493;SDS011;68951;53.130;18.104;2024-02-26T12:37:02;20.60;;;15.00;;
79493;SDS011;68951;53.130;18.104;2024-02-26T12:39:29;19.80;;;14.20;;
79493;SDS011;68951;53.130;18.104;2024-02-26T12:41:57;20.80;;;14.30;;
79493;SDS011;68951;53.130;18.104;2024-02-26T12:44:26;23.70;;;15.30;;
79493;SDS011;68951;53.130;18.104;2024-02-26T12:47:11;20.60;;;14.40;;
79493;SDS011;68951;53.130;18.104;2024-02-26T12:49:43;20.50;;;13.20;;
79493;SDS011;68951;53.130;18.104;2024-02-26T12:52:13;22.30;;;14.20;;
79493;SDS011;68951;53.130;18.104;2024-02-26T12:54:40;17.40;;;11.70;;
79493;SDS011;68951;53.130;18.104;2024-02-26T12:57:09;16.20;;;11.20;;
79493;SDS011;68951;53.130;18.104;2024-02-26T12:59:36;20.80;;;12.30;;
79493;SDS011;68951;53.130;18.104;2024-02-26T13:02:04;20.20;;;13.80;;
79493;SDS011;68951;53.130;18.104;2024-02-26T13:04:31;19.70;;;12.80;;
79493;SDS011;68951;53.130;18.104;2024-02-26T13:06:58;20.00;;;13.20;;
79493;SDS011;68951;53.130;18.104;2024-02-26T13:09:34;16.00;;;10.00;;
79493;SDS011;68951;53.130;18.104;2024-02-26T13:12:05;18.30;;;11.30;;
79493;SDS011;68951;53.130;18.104;2024-02-26T13:14:33;17.60;;;12.60;;
79493;SDS011;68951;53.130;18.104;2024-02-26T13:17:01;17.80;;;11.40;;
79493;SDS011;68951;53.130;18.104;2024-02-26T13:19:28;21.40;;;12.10;;
79493;SDS011;68951;53.130;18.104;2024-02-26T13:21:55;18.60;;;11.10;;
79493;SDS011;68951;53.130;18.104;2024-02-26T13:24:22;15.90;;;10.10;;
79493;SDS011;68951;53.130;18.104;2024-02-26T13:26:55;17.80;;;11.10;;
79493;SDS011;68951;53.130;18.104;2024-02-26T13:29:21;20.30;;;13.20;;
79493;SDS011;68951;53.130;18.104;2024-02-26T13:31:54;16.60;;;11.10;;
79493;SDS011;68951;53.130;18.104;2024-02-26T13:34:23;17.80;;;13.20;;
79493;SDS011;68951;53.130;18.104;2024-02-26T13:36:54;20.20;;;13.10;;
79493;SDS011;68951;53.130;18.104;2024-02-26T13:39:24;19.10;;;12.40;;
79493;SDS011;68951;53.130;18.104;2024-02-26T13:41:52;19.10;;;12.40;;
79493;SDS011;68951;53.130;18.104;2024-02-26T13:44:20;18.00;;;11.90;;
79493;SDS011;68951;53.130;18.104;2024-02-26T13:46:48;20.30;;;13.40;;
79493;SDS011;68951;53.130;18.104;2024-02-26T13:49:16;21.60;;;14.00;;
79493;SDS011;68951;53.130;18.104;2024-02-26T13:51:42;25.90;;;15.70;;
79493;SDS011;68951;53.130;18.104;2024-02-26T13:54:09;23.00;;;14.80;;
79493;SDS011;68951;53.130;18.104;2024-02-26T13:56:37;23.00;;;15.50;;
79493;SDS011;68951;53.130;18.104;2024-02-26T13:59:04;22.30;;;14.90;;
79493;SDS011;68951;53.130;18.104;2024-02-26T14:01:31;22.10;;;15.00;;
79493;SDS011;68951;53.130;18.104;2024-02-26T14:03:59;21.50;;;14.60;;
79493;SDS011;68951;53.130;18.104;2024-02-26T14:06:28;16.10;;;12.00;;
79493;SDS011;68951;53.130;18.104;2024-02-26T14:08:55;22.40;;;14.30;;
79493;SDS011;68951;53.130;18.104;2024-02-26T14:11:22;21.70;;;13.70;;
79493;SDS011;68951;53.130;18.104;2024-02-26T14:13:49;22.10;;;13.80;;
79493;SDS011;68951;53.130;18.104;2024-02-26T14:16:16;20.10;;;12.40;;